KNSE/NSE METAR and TAF weather

Enter ICAO airport designator
Station Type Date Time Source
KNSE METAR 2019/04/23 04:56 UTC NOAA

KNSE 230456Z AUTO 30003KT 10SM CLR 12/09 A3015 RMK AO2 SLP197 T01170089 $


Station Type Date Time Source
KNSE Decoded METAR 2019/04/23 04:56 UTC NOAA

MILTON WHITING FIELD (NORTH), FL, United States (KNSE) 30-44N 87-01W 60M
Apr 23, 2019 - 12:56 AM EDT / 2019.04.23 0456 UTC
Wind: from the WNW (300 degrees) at 3 MPH (3 KT):0
Visibility: 10 mile(s):0
Sky conditions: clear
Temperature: 53.1 F (11.7 C)
Dew Point: 48.0 F (8.9 C)
Relative Humidity: 82%
Pressure (altimeter): 30.15 in. Hg (1020 hPa)
ob: KNSE 230456Z AUTO 30003KT 10SM CLR 12/09 A3015 RMK AO2 SLP197 T01170089
cycle: 5

Station Type Date Time Source
KNSE TAF 2019/04/22 23:46 UTC NOAA

TAF KNSE 2223/2323 20008KT 9999 FEW250 QNH3011INS
FM230300 VRB03KT 9999 SKC QNH3012INS
FM231600 15005KT 9999 FEW030 SCT250 QNH3013INS
FM231830 18010G15KT 9999 FEW030 SCT250 QNH3008INS AUTOMATED SENSOR METWATCH 2304 TIL 2311 T10/2310Z T28/2320Z FN20031

Example: see airport list